createdAt,value
2022-10-06T00:00:09.291Z,5.03
2022-10-06T00:00:56.254Z,5.28
2022-10-06T00:01:43.004Z,5.05
2022-10-06T00:02:29.899Z,5.20
2022-10-06T00:03:17.342Z,4.95
2022-10-06T00:04:04.164Z,5.55
2022-10-06T00:04:51.011Z,4.95
2022-10-06T00:05:38.445Z,5.68
2022-10-06T00:06:25.909Z,5.25
2022-10-06T00:07:12.767Z,5.22
2022-10-06T00:08:00.395Z,4.87
2022-10-06T00:08:48.605Z,5.70
2022-10-06T00:09:35.403Z,5.43
2022-10-06T00:10:22.201Z,5.53
2022-10-06T00:11:09.890Z,5.03
2022-10-06T00:11:56.584Z,5.05
2022-10-06T00:12:45.376Z,5.43
2022-10-06T00:13:32.951Z,4.80
2022-10-06T00:14:19.998Z,5.00
2022-10-06T00:15:07.670Z,4.87
2022-10-06T00:15:54.665Z,5.10
2022-10-06T00:16:41.543Z,4.95
2022-10-06T00:17:28.334Z,5.18
2022-10-06T00:18:15.129Z,4.95
2022-10-06T00:19:01.994Z,4.90
2022-10-06T00:19:48.892Z,5.05
2022-10-06T00:20:35.611Z,5.18
2022-10-06T00:21:22.476Z,5.00
2022-10-06T00:22:09.240Z,5.25
2022-10-06T00:22:57.293Z,5.00
2022-10-06T00:23:44.230Z,5.20
2022-10-06T00:24:32.326Z,5.70
2022-10-06T00:25:21.538Z,5.28
2022-10-06T00:26:17.417Z,5.50
2022-10-06T00:27:04.440Z,5.68
2022-10-06T00:27:52.910Z,5.35
2022-10-06T00:28:40.161Z,4.85
2022-10-06T00:29:27.406Z,5.18
2022-10-06T00:30:21.142Z,5.43
2022-10-06T00:31:08.093Z,5.72
2022-10-06T00:31:55.485Z,5.20
2022-10-06T00:32:42.415Z,5.20
2022-10-06T00:33:29.246Z,5.43
2022-10-06T00:34:15.990Z,4.87
2022-10-06T00:35:03.432Z,5.55
2022-10-06T00:35:58.985Z,5.50
2022-10-06T00:36:46.221Z,6.15
2022-10-06T00:37:38.080Z,6.25
2022-10-06T00:38:24.869Z,5.00
2022-10-06T00:39:11.800Z,5.37
2022-10-06T00:39:58.759Z,5.45
2022-10-06T00:40:50.394Z,5.65
2022-10-06T00:41:37.148Z,5.28
2022-10-06T00:42:30.281Z,5.47
2022-10-06T00:43:46.767Z,5.40
2022-10-06T00:44:33.534Z,5.60
2022-10-06T00:45:27.175Z,5.00
2022-10-06T00:46:27.313Z,5.15
2022-10-06T00:47:14.396Z,5.50
2022-10-06T00:48:05.561Z,5.40
2022-10-06T00:49:07.248Z,5.35
2022-10-06T00:49:54.936Z,5.43
2022-10-06T00:50:42.107Z,5.00
2022-10-06T00:51:29.525Z,5.68
2022-10-06T00:52:19.192Z,5.37
2022-10-06T00:53:06.257Z,5.68
2022-10-06T00:53:53.512Z,5.53
2022-10-06T00:54:40.805Z,5.43
2022-10-06T00:55:27.713Z,5.60
2022-10-06T00:56:14.564Z,5.60
2022-10-06T00:57:01.650Z,5.68
2022-10-06T00:57:48.926Z,5.12
2022-10-06T00:58:35.906Z,5.87
2022-10-06T00:59:22.686Z,6.22
2022-10-06T01:00:11.459Z,5.70
2022-10-06T01:00:59.594Z,5.15
2022-10-06T01:02:11.567Z,5.70
2022-10-06T01:03:03.372Z,5.40
2022-10-06T01:03:56.080Z,5.75
2022-10-06T01:04:47.328Z,5.05
2022-10-06T01:05:37.336Z,5.32
2022-10-06T01:06:24.126Z,5.72
2022-10-06T01:07:11.485Z,6.07
2022-10-06T01:07:58.727Z,5.95
2022-10-06T01:08:46.227Z,5.37
2022-10-06T01:09:33.101Z,5.40
2022-10-06T01:10:20.344Z,5.65
2022-10-06T01:11:14.494Z,5.35
2022-10-06T01:12:04.416Z,5.68
2022-10-06T01:12:52.397Z,5.60
2022-10-06T01:13:39.423Z,5.80
2022-10-06T01:14:27.007Z,5.68
2022-10-06T01:15:14.947Z,5.70
2022-10-06T01:16:08.074Z,5.43
2022-10-06T01:17:10.447Z,5.68
2022-10-06T01:18:08.335Z,5.62
2022-10-06T01:18:55.961Z,5.47
2022-10-06T01:19:55.429Z,5.70
2022-10-06T01:20:47.369Z,5.57
2022-10-06T01:21:42.319Z,5.80
2022-10-06T01:22:51.588Z,5.62
2022-10-06T01:23:38.825Z,5.43
2022-10-06T01:24:25.566Z,5.30
2022-10-06T01:25:17.010Z,5.62
2022-10-06T01:26:07.704Z,5.60
2022-10-06T01:26:55.459Z,5.45
2022-10-06T01:27:44.477Z,5.60
2022-10-06T01:28:31.718Z,5.12
2022-10-06T01:29:19.303Z,5.97
2022-10-06T01:30:09.088Z,5.82
2022-10-06T01:30:56.858Z,6.07
2022-10-06T01:31:43.779Z,5.60
2022-10-06T01:32:35.178Z,5.57
2022-10-06T01:33:22.688Z,5.70
2022-10-06T01:34:10.045Z,5.87
2022-10-06T01:34:56.759Z,5.82
2022-10-06T01:35:46.150Z,5.57
2022-10-06T01:36:33.041Z,5.97
2022-10-06T01:37:19.803Z,5.72
2022-10-06T01:38:06.583Z,5.12
2022-10-06T01:38:53.383Z,6.22
2022-10-06T01:39:40.164Z,5.82
2022-10-06T01:40:29.324Z,6.37
2022-10-06T01:41:16.402Z,5.65
2022-10-06T01:42:03.486Z,5.90
2022-10-06T01:42:50.281Z,6.32
2022-10-06T01:43:37.063Z,5.57
2022-10-06T01:44:23.844Z,5.62
2022-10-06T01:45:10.926Z,6.47
2022-10-06T01:45:58.996Z,6.03
2022-10-06T01:46:45.862Z,5.20
2022-10-06T01:47:34.371Z,5.50
2022-10-06T01:48:21.196Z,5.50
2022-10-06T01:49:07.947Z,5.62
2022-10-06T01:49:54.805Z,5.43
2022-10-06T01:50:41.637Z,5.72
2022-10-06T01:51:28.607Z,5.43
2022-10-06T01:52:15.442Z,5.47
2022-10-06T01:53:02.643Z,5.78
2022-10-06T01:53:49.429Z,5.65
2022-10-06T01:54:36.263Z,5.70
2022-10-06T01:55:26.083Z,5.22
2022-10-06T01:56:13.221Z,5.37
2022-10-06T01:56:59.962Z,5.60
2022-10-06T01:57:46.728Z,5.53
2022-10-06T01:58:33.559Z,5.37
2022-10-06T01:59:20.385Z,5.43
2022-10-06T02:00:08.470Z,6.10
2022-10-06T02:00:55.302Z,5.62
2022-10-06T02:01:42.089Z,5.93
2022-10-06T02:02:31.775Z,5.85
2022-10-06T02:03:18.563Z,5.97
2022-10-06T02:04:05.544Z,5.40
2022-10-06T02:04:52.605Z,5.68
2022-10-06T02:05:39.339Z,6.15
2022-10-06T02:06:26.494Z,6.40
2022-10-06T02:07:13.444Z,5.57
2022-10-06T02:08:01.560Z,5.80
2022-10-06T02:08:48.392Z,5.68
2022-10-06T02:09:35.408Z,5.50
2022-10-06T02:10:22.126Z,6.05
2022-10-06T02:11:10.846Z,5.95
2022-10-06T02:11:57.853Z,5.57
2022-10-06T02:12:44.923Z,5.68
2022-10-06T02:13:32.289Z,5.72
2022-10-06T02:14:19.121Z,5.80
2022-10-06T02:15:06.448Z,5.93
2022-10-06T02:15:57.709Z,5.85
2022-10-06T02:16:45.344Z,6.15
2022-10-06T02:17:32.442Z,5.78
2022-10-06T02:18:19.250Z,5.87
2022-10-06T02:19:06.630Z,6.20
2022-10-06T02:19:53.458Z,5.43
2022-10-06T02:20:40.724Z,6.22
2022-10-06T02:21:27.799Z,5.70
2022-10-06T02:22:14.611Z,5.82
2022-10-06T02:23:01.440Z,5.70
2022-10-06T02:23:48.986Z,5.82
2022-10-06T02:24:35.869Z,5.90
2022-10-06T02:25:22.727Z,5.50
2022-10-06T02:26:09.643Z,6.62
2022-10-06T02:26:56.748Z,5.62
2022-10-06T02:27:43.640Z,5.87
2022-10-06T02:28:31.609Z,5.47
2022-10-06T02:29:18.965Z,5.97
2022-10-06T02:30:07.331Z,5.53
2022-10-06T02:30:54.931Z,5.90
2022-10-06T02:31:41.937Z,6.12
2022-10-06T02:32:39.607Z,5.90
2022-10-06T02:33:26.333Z,6.00
2022-10-06T02:34:13.354Z,6.65
2022-10-06T02:35:00.400Z,5.82
2022-10-06T02:35:47.403Z,6.32
2022-10-06T02:36:34.257Z,5.72
2022-10-06T02:37:21.007Z,5.18
2022-10-06T02:38:07.748Z,5.43
2022-10-06T02:38:54.809Z,5.50
2022-10-06T02:39:42.347Z,5.80
2022-10-06T02:40:29.169Z,5.80
2022-10-06T02:41:15.992Z,5.80
2022-10-06T02:42:04.873Z,5.70
2022-10-06T02:42:51.887Z,6.10
2022-10-06T02:43:38.769Z,6.00
2022-10-06T02:44:25.620Z,5.65
2022-10-06T02:45:12.636Z,5.45
2022-10-06T02:46:01.445Z,5.60
2022-10-06T02:46:48.554Z,6.32
2022-10-06T02:47:37.121Z,6.57
2022-10-06T02:48:24.709Z,5.90
2022-10-06T02:49:11.565Z,5.55
2022-10-06T02:50:02.123Z,6.37
2022-10-06T02:50:59.759Z,5.93
2022-10-06T02:51:46.797Z,6.00
2022-10-06T02:52:35.620Z,5.78
2022-10-06T02:53:22.446Z,5.65
2022-10-06T02:54:09.209Z,5.40
2022-10-06T02:54:56.093Z,5.90
2022-10-06T02:55:42.817Z,5.75
2022-10-06T02:56:29.612Z,6.00
2022-10-06T02:57:16.543Z,5.95
2022-10-06T02:58:03.916Z,6.37
2022-10-06T02:58:51.978Z,5.53
2022-10-06T02:59:38.846Z,6.50
2022-10-06T03:00:26.263Z,6.65
2022-10-06T03:01:15.925Z,5.82
2022-10-06T03:02:03.262Z,6.17
2022-10-06T03:02:50.387Z,5.70
2022-10-06T03:03:37.683Z,6.12
2022-10-06T03:04:24.546Z,5.97
2022-10-06T03:05:11.466Z,6.20
2022-10-06T03:06:06.874Z,5.90
2022-10-06T03:06:54.227Z,6.25
2022-10-06T03:07:41.052Z,6.20
2022-10-06T03:08:28.209Z,5.85
2022-10-06T03:09:15.508Z,5.95
2022-10-06T03:10:02.305Z,5.80
2022-10-06T03:10:49.066Z,5.78
2022-10-06T03:11:37.611Z,5.80
2022-10-06T03:12:24.601Z,6.70
2022-10-06T03:13:11.500Z,5.82
2022-10-06T03:13:58.418Z,6.03
2022-10-06T03:14:45.292Z,5.60
2022-10-06T03:15:32.096Z,6.35
2022-10-06T03:16:19.904Z,6.78
2022-10-06T03:17:08.666Z,6.12
2022-10-06T03:17:55.488Z,6.28
2022-10-06T03:18:47.169Z,5.65
2022-10-06T03:19:34.064Z,6.07
2022-10-06T03:20:20.918Z,5.90
2022-10-06T03:21:07.799Z,6.10
2022-10-06T03:21:54.764Z,5.65
2022-10-06T03:22:41.580Z,6.35
2022-10-06T03:23:28.395Z,5.93
2022-10-06T03:24:15.603Z,5.72
2022-10-06T03:25:02.410Z,6.03
2022-10-06T03:25:56.884Z,5.60
2022-10-06T03:26:45.758Z,5.70
2022-10-06T03:27:32.644Z,6.78
2022-10-06T03:28:19.524Z,6.05
2022-10-06T03:29:11.347Z,5.85
2022-10-06T03:29:58.628Z,6.20
2022-10-06T03:30:45.416Z,6.18
2022-10-06T03:31:32.311Z,6.30
2022-10-06T03:32:19.399Z,6.35
2022-10-06T03:33:06.230Z,6.10
2022-10-06T03:33:54.634Z,5.93
2022-10-06T03:34:41.450Z,6.53
2022-10-06T03:35:28.408Z,5.85
2022-10-06T03:36:21.088Z,6.55
2022-10-06T03:37:07.899Z,5.90
2022-10-06T03:37:54.692Z,5.85
2022-10-06T03:38:41.887Z,5.87
2022-10-06T03:39:28.817Z,6.20
2022-10-06T03:40:15.681Z,6.00
2022-10-06T03:41:13.627Z,6.00
2022-10-06T03:42:00.445Z,6.25
2022-10-06T03:42:47.247Z,5.75
2022-10-06T03:43:34.767Z,6.10
2022-10-06T03:44:23.011Z,5.65
2022-10-06T03:45:10.312Z,6.15
2022-10-06T03:45:58.067Z,5.60
2022-10-06T03:46:44.940Z,5.82
2022-10-06T03:47:31.766Z,5.70
2022-10-06T03:48:18.531Z,6.30
2022-10-06T03:49:05.601Z,6.03
2022-10-06T03:49:52.407Z,6.30
2022-10-06T03:50:39.361Z,5.78
2022-10-06T03:51:29.890Z,5.70
2022-10-06T03:52:16.765Z,5.62
2022-10-06T03:53:03.757Z,6.57
2022-10-06T03:53:51.963Z,5.90
2022-10-06T03:54:38.848Z,6.07
2022-10-06T03:55:25.758Z,6.20
2022-10-06T03:56:18.423Z,5.97
2022-10-06T03:57:05.209Z,6.00
2022-10-06T03:57:52.043Z,6.05
2022-10-06T03:58:40.904Z,5.82
2022-10-06T03:59:31.565Z,5.68
2022-10-06T04:01:11.375Z,5.75
2022-10-06T04:01:58.338Z,6.53
2022-10-06T04:02:45.159Z,5.70
2022-10-06T04:03:32.814Z,5.87
2022-10-06T04:04:19.663Z,6.50
2022-10-06T04:05:07.087Z,6.22
2022-10-06T04:05:58.087Z,6.12
2022-10-06T04:06:45.111Z,6.03
2022-10-06T04:07:31.893Z,6.15
2022-10-06T04:08:19.116Z,6.37
2022-10-06T04:09:10.298Z,5.97
2022-10-06T04:10:00.903Z,6.12
2022-10-06T04:10:47.924Z,6.05
2022-10-06T04:11:37.816Z,6.20
2022-10-06T04:12:24.687Z,6.15
2022-10-06T04:13:11.525Z,6.37
2022-10-06T04:14:00.788Z,6.05
2022-10-06T04:14:47.726Z,6.60
2022-10-06T04:15:34.591Z,6.30
2022-10-06T04:16:23.678Z,6.10
2022-10-06T04:17:10.586Z,6.97
2022-10-06T04:17:57.449Z,5.82
2022-10-06T04:18:45.886Z,5.75
2022-10-06T04:19:32.792Z,6.10
2022-10-06T04:20:19.628Z,6.60
2022-10-06T04:21:06.527Z,6.10
2022-10-06T04:21:53.362Z,6.20
2022-10-06T04:22:40.183Z,6.10
2022-10-06T04:23:27.032Z,6.25
2022-10-06T04:24:14.147Z,5.62
2022-10-06T04:25:00.939Z,6.25
2022-10-06T04:25:48.965Z,5.65
2022-10-06T04:26:40.921Z,6.07
2022-10-06T04:27:27.701Z,5.90
2022-10-06T04:28:14.572Z,7.03
2022-10-06T04:29:01.686Z,7.22
2022-10-06T04:29:48.497Z,7.50
2022-10-06T04:30:35.414Z,6.70
2022-10-06T04:31:24.573Z,6.35
2022-10-06T04:32:11.705Z,6.60
2022-10-06T04:32:58.480Z,6.32
2022-10-06T04:33:47.166Z,6.43
2022-10-06T04:34:33.961Z,6.62
2022-10-06T04:35:20.775Z,6.53
2022-10-06T04:36:09.030Z,6.40
2022-10-06T04:36:56.003Z,7.43
2022-10-06T04:37:43.082Z,6.93
2022-10-06T04:38:33.168Z,6.60
2022-10-06T04:39:20.232Z,7.15
2022-10-06T04:40:07.713Z,6.72
2022-10-06T04:40:54.652Z,6.87
2022-10-06T04:41:42.707Z,6.65
2022-10-06T04:42:34.685Z,6.68
2022-10-06T04:43:22.046Z,6.15
2022-10-06T04:44:09.278Z,6.80
2022-10-06T04:44:56.220Z,6.85
2022-10-06T04:45:43.167Z,6.70
2022-10-06T04:46:42.624Z,6.65
2022-10-06T04:48:17.515Z,6.12
2022-10-06T04:49:04.950Z,6.37
2022-10-06T04:49:51.727Z,5.80
2022-10-06T04:50:38.550Z,6.12
2022-10-06T04:51:26.767Z,5.75
2022-10-06T04:52:13.513Z,6.10
2022-10-06T04:53:00.286Z,6.25
2022-10-06T04:53:47.607Z,6.37
2022-10-06T04:54:34.457Z,6.72
2022-10-06T04:55:21.228Z,6.07
2022-10-06T04:56:11.703Z,6.22
2022-10-06T04:56:58.649Z,5.22
2022-10-06T04:57:45.567Z,6.20
2022-10-06T04:58:34.235Z,5.97
2022-10-06T04:59:20.999Z,6.47
2022-10-06T05:00:25.759Z,6.22
2022-10-06T05:01:20.856Z,6.93
2022-10-06T05:02:08.024Z,6.57
2022-10-06T05:02:56.155Z,6.65
2022-10-06T05:03:44.556Z,6.70
2022-10-06T05:04:31.327Z,6.10
2022-10-06T05:05:18.097Z,6.57
2022-10-06T05:06:19.704Z,6.68
2022-10-06T05:07:06.643Z,6.32
2022-10-06T05:07:53.429Z,6.80
2022-10-06T05:08:40.698Z,6.30
2022-10-06T05:09:27.487Z,6.95
2022-10-06T05:10:14.447Z,5.80
2022-10-06T05:11:06.458Z,6.25
2022-10-06T05:11:53.298Z,6.15
2022-10-06T05:12:40.389Z,5.62
2022-10-06T05:13:27.344Z,5.87
2022-10-06T05:14:14.236Z,6.47
2022-10-06T05:15:01.289Z,8.02
2022-10-06T05:15:56.798Z,6.47
2022-10-06T05:16:43.704Z,6.45
2022-10-06T05:17:30.477Z,7.03
2022-10-06T05:18:17.276Z,7.07
2022-10-06T05:19:04.054Z,7.05
2022-10-06T05:19:51.594Z,6.32
2022-10-06T05:20:40.029Z,6.85
2022-10-06T05:21:29.191Z,6.62
2022-10-06T05:22:15.990Z,6.10
2022-10-06T05:23:06.908Z,6.10
2022-10-06T05:23:53.860Z,6.50
2022-10-06T05:24:41.459Z,6.07
2022-10-06T05:25:28.241Z,7.07
2022-10-06T05:26:17.690Z,7.22
2022-10-06T05:27:04.550Z,6.68
2022-10-06T05:27:51.318Z,6.37
2022-10-06T05:28:38.313Z,6.97
2022-10-06T05:29:25.102Z,8.85
2022-10-06T05:30:12.173Z,7.70
2022-10-06T05:31:00.998Z,7.85
2022-10-06T05:31:48.183Z,6.87
2022-10-06T05:32:36.327Z,6.65
2022-10-06T05:33:24.238Z,7.37
2022-10-06T05:34:11.024Z,6.10
2022-10-06T05:34:57.894Z,6.10
2022-10-06T05:35:58.381Z,6.40
2022-10-06T05:36:45.811Z,6.18
2022-10-06T05:37:32.901Z,5.62
2022-10-06T05:38:19.963Z,5.68
2022-10-06T05:39:06.747Z,6.05
2022-10-06T05:39:53.480Z,5.32
2022-10-06T05:40:40.262Z,5.78
2022-10-06T05:41:29.450Z,5.78
2022-10-06T05:42:16.410Z,6.72
2022-10-06T05:43:03.123Z,5.60
2022-10-06T05:43:50.096Z,5.78
2022-10-06T05:44:36.954Z,6.90
2022-10-06T05:45:23.835Z,6.70
2022-10-06T05:46:20.582Z,7.12
2022-10-06T05:47:07.524Z,6.53
2022-10-06T05:47:54.631Z,7.37
2022-10-06T05:48:41.961Z,6.50
2022-10-06T05:49:28.727Z,6.90
2022-10-06T05:50:15.450Z,6.00
2022-10-06T05:51:10.957Z,6.32
2022-10-06T05:51:57.702Z,6.20
2022-10-06T05:52:44.528Z,7.15
2022-10-06T05:53:32.244Z,7.43
2022-10-06T05:54:19.215Z,6.72
2022-10-06T05:55:07.170Z,6.50
2022-10-06T05:56:07.287Z,6.90
2022-10-06T05:56:54.230Z,6.47
2022-10-06T05:57:41.042Z,6.70
2022-10-06T05:58:28.643Z,8.00
2022-10-06T05:59:15.701Z,6.90
2022-10-06T06:00:02.559Z,6.70
2022-10-06T06:00:49.379Z,7.03
2022-10-06T06:01:40.173Z,6.62
2022-10-06T06:02:27.569Z,7.15
2022-10-06T06:03:14.367Z,6.72
2022-10-06T06:04:03.358Z,7.18
2022-10-06T06:04:50.126Z,6.85
2022-10-06T06:05:43.408Z,7.18
2022-10-06T06:06:40.969Z,7.32
2022-10-06T06:07:27.807Z,6.75
2022-10-06T06:08:14.644Z,7.32
2022-10-06T06:09:04.306Z,7.20
2022-10-06T06:09:51.062Z,7.15
2022-10-06T06:10:37.916Z,7.50
2022-10-06T06:11:31.666Z,6.87
2022-10-06T06:12:18.462Z,7.22
2022-10-06T06:13:06.367Z,7.30
2022-10-06T06:13:56.285Z,7.03
2022-10-06T06:15:02.137Z,7.15
2022-10-06T06:16:01.205Z,7.12
2022-10-06T06:16:47.998Z,7.32
2022-10-06T06:17:35.020Z,7.32
2022-10-06T06:18:21.727Z,7.43
2022-10-06T06:19:10.009Z,7.28
2022-10-06T06:19:56.977Z,7.50
2022-10-06T06:20:43.809Z,7.90
2022-10-06T06:21:30.680Z,7.65
2022-10-06T06:22:17.435Z,7.47
2022-10-06T06:23:06.120Z,7.30
2022-10-06T06:23:54.126Z,7.37
2022-10-06T06:24:41.486Z,7.32
2022-10-06T06:25:30.003Z,7.22
2022-10-06T06:26:30.066Z,6.95
2022-10-06T06:27:21.806Z,7.35
2022-10-06T06:28:09.101Z,6.65
2022-10-06T06:29:04.328Z,7.28
2022-10-06T06:29:51.141Z,6.22
2022-10-06T06:30:38.272Z,6.57
2022-10-06T06:31:27.495Z,6.68
2022-10-06T06:32:14.364Z,6.53
2022-10-06T06:33:01.086Z,7.75
2022-10-06T06:33:49.011Z,6.37
2022-10-06T06:34:35.704Z,6.97
2022-10-06T06:35:22.509Z,6.40
2022-10-06T06:36:22.903Z,6.45
2022-10-06T06:37:15.032Z,6.18
2022-10-06T06:38:02.136Z,6.40
2022-10-06T06:38:53.532Z,6.68
2022-10-06T06:39:40.347Z,6.40
2022-10-06T06:40:27.062Z,6.25
2022-10-06T06:41:18.679Z,6.05
2022-10-06T06:42:08.640Z,6.37
2022-10-06T06:42:55.420Z,6.35
2022-10-06T06:43:42.656Z,6.50
2022-10-06T06:44:30.266Z,6.20
2022-10-06T06:45:17.038Z,6.45
2022-10-06T06:46:04.500Z,6.43
2022-10-06T06:46:51.436Z,7.30
2022-10-06T06:47:38.199Z,6.10
2022-10-06T06:48:24.878Z,6.20
2022-10-06T06:49:12.337Z,5.95
2022-10-06T06:50:00.355Z,6.05
2022-10-06T06:50:56.413Z,6.05
2022-10-06T06:51:44.847Z,6.45
2022-10-06T06:52:32.660Z,6.20
2022-10-06T06:53:19.408Z,6.30
2022-10-06T06:54:07.087Z,7.57
2022-10-06T06:54:53.809Z,5.97
2022-10-06T06:55:51.201Z,5.93
2022-10-06T06:56:39.059Z,6.18
2022-10-06T06:57:26.199Z,5.85
2022-10-06T06:58:12.863Z,6.20
2022-10-06T06:58:59.626Z,6.20
2022-10-06T06:59:46.400Z,6.12
2022-10-06T07:00:36.152Z,6.90
2022-10-06T07:01:23.693Z,6.87
2022-10-06T07:02:12.125Z,5.95
2022-10-06T07:03:00.808Z,5.85
2022-10-06T07:03:58.002Z,6.28
2022-10-06T07:04:45.270Z,6.75
2022-10-06T07:05:32.523Z,6.12
2022-10-06T07:06:19.405Z,6.15
2022-10-06T07:07:06.166Z,5.40
2022-10-06T07:07:52.898Z,5.82
2022-10-06T07:08:44.722Z,5.75
2022-10-06T07:09:31.511Z,6.20
2022-10-06T07:10:18.305Z,5.57
2022-10-06T07:11:23.693Z,6.25
2022-10-06T07:12:11.676Z,6.03
2022-10-06T07:12:58.520Z,6.10
2022-10-06T07:13:46.207Z,6.00
2022-10-06T07:14:33.205Z,5.90
2022-10-06T07:15:38.353Z,6.37
2022-10-06T07:16:44.084Z,6.05
2022-10-06T07:17:49.454Z,6.37
2022-10-06T07:18:55.527Z,7.05
2022-10-06T07:19:51.621Z,6.03
2022-10-06T07:20:57.276Z,6.07
2022-10-06T07:22:03.295Z,6.53
2022-10-06T07:23:08.767Z,6.07
2022-10-06T07:24:13.992Z,5.80
2022-10-06T07:25:08.041Z,6.20
2022-10-06T07:25:54.798Z,6.30
2022-10-06T07:26:41.573Z,6.78
2022-10-06T07:27:29.191Z,6.47
2022-10-06T07:28:17.331Z,6.07
2022-10-06T07:29:04.092Z,5.97
2022-10-06T07:29:54.591Z,6.37
2022-10-06T07:30:41.662Z,6.35
2022-10-06T07:31:33.699Z,6.90
2022-10-06T07:32:25.081Z,6.35
2022-10-06T07:33:11.929Z,5.97
2022-10-06T07:33:58.687Z,6.32
2022-10-06T07:34:45.378Z,6.32
2022-10-06T07:35:32.205Z,6.30
2022-10-06T07:36:20.840Z,6.20
2022-10-06T07:37:07.617Z,6.35
2022-10-06T07:37:54.406Z,6.65
2022-10-06T07:38:41.712Z,6.68
2022-10-06T07:39:28.439Z,6.18
2022-10-06T07:40:15.501Z,6.50
2022-10-06T07:42:15.558Z,6.28
2022-10-06T07:43:02.827Z,6.30
2022-10-06T07:43:49.776Z,6.90
2022-10-06T07:44:36.490Z,6.37
2022-10-06T07:45:38.506Z,6.65
2022-10-06T07:46:25.556Z,6.70
2022-10-06T07:47:12.659Z,6.82
2022-10-06T07:48:00.821Z,6.60
2022-10-06T07:48:50.369Z,6.37
2022-10-06T07:49:37.087Z,6.87
2022-10-06T07:50:26.120Z,6.25
2022-10-06T07:51:14.982Z,6.93
2022-10-06T07:52:02.810Z,6.40
2022-10-06T07:52:49.548Z,6.62
2022-10-06T07:53:37.624Z,6.40
2022-10-06T07:54:27.454Z,6.30
2022-10-06T07:55:17.858Z,6.60
2022-10-06T07:56:08.538Z,7.62
2022-10-06T07:57:46.143Z,6.62
2022-10-06T07:58:33.332Z,6.45
2022-10-06T07:59:20.738Z,6.62
2022-10-06T08:00:08.366Z,7.75
2022-10-06T08:00:55.128Z,6.53
2022-10-06T08:01:44.268Z,6.65
2022-10-06T08:02:34.698Z,6.40
2022-10-06T08:03:22.879Z,7.05
2022-10-06T08:04:10.401Z,6.47
2022-10-06T08:04:57.112Z,6.60
2022-10-06T08:05:45.058Z,6.70
2022-10-06T08:06:31.799Z,6.60
2022-10-06T08:07:18.951Z,6.95
2022-10-06T08:08:06.287Z,6.97
2022-10-06T08:08:53.458Z,6.68
2022-10-06T08:09:40.408Z,7.25
2022-10-06T08:10:27.203Z,6.82
2022-10-06T08:11:14.876Z,7.15
2022-10-06T08:12:21.586Z,7.07
2022-10-06T08:13:09.164Z,6.87
2022-10-06T08:13:56.060Z,6.85
2022-10-06T08:14:42.776Z,6.53
2022-10-06T08:15:29.566Z,7.20
2022-10-06T08:16:21.138Z,6.95
2022-10-06T08:17:08.022Z,7.28
2022-10-06T08:17:54.747Z,7.07
2022-10-06T08:18:46.518Z,7.22
2022-10-06T08:19:33.943Z,6.95
2022-10-06T08:20:20.680Z,7.65
2022-10-06T08:21:14.565Z,7.62
2022-10-06T08:22:04.781Z,6.72
2022-10-06T08:23:42.574Z,6.80
2022-10-06T08:24:37.870Z,7.20
2022-10-06T08:25:42.806Z,6.68
2022-10-06T08:26:31.203Z,7.32
2022-10-06T08:27:17.995Z,6.85
2022-10-06T08:28:05.710Z,7.50
2022-10-06T08:28:55.454Z,7.20
2022-10-06T08:29:42.200Z,6.28
2022-10-06T08:30:29.196Z,7.15
2022-10-06T08:31:17.901Z,6.90
2022-10-06T08:32:04.760Z,6.55
2022-10-06T08:32:51.680Z,7.40
2022-10-06T08:33:39.779Z,7.12
2022-10-06T08:34:26.653Z,7.37
2022-10-06T08:35:14.332Z,7.37
2022-10-06T08:36:10.200Z,6.90
2022-10-06T08:37:18.723Z,6.97
2022-10-06T08:38:04.406Z,6.95
2022-10-06T08:38:51.200Z,7.05
2022-10-06T08:39:37.966Z,7.03
2022-10-06T08:40:26.120Z,7.20
2022-10-06T08:41:40.122Z,7.10
2022-10-06T08:42:26.806Z,7.10
2022-10-06T08:43:17.903Z,7.28
2022-10-06T08:44:19.855Z,6.87
2022-10-06T08:45:13.592Z,7.53
2022-10-06T08:46:02.209Z,6.68
2022-10-06T08:47:01.471Z,7.78
2022-10-06T08:48:00.600Z,7.18
2022-10-06T08:48:47.441Z,7.85
2022-10-06T08:49:47.947Z,7.28
2022-10-06T08:50:39.123Z,7.30
2022-10-06T08:51:33.248Z,7.03
2022-10-06T08:52:46.415Z,6.68
2022-10-06T08:53:47.174Z,7.32
2022-10-06T08:54:49.605Z,7.93
2022-10-06T08:55:39.429Z,7.60
2022-10-06T08:56:34.600Z,7.47
2022-10-06T08:57:31.166Z,7.07
2022-10-06T08:58:29.437Z,8.07
2022-10-06T08:59:17.751Z,7.20
2022-10-06T09:00:19.368Z,8.00
2022-10-06T09:01:20.377Z,7.57
2022-10-06T09:02:31.085Z,7.65
2022-10-06T09:03:25.119Z,7.05
2022-10-06T09:04:28.558Z,7.57
2022-10-06T09:05:24.105Z,8.48
2022-10-06T09:06:40.665Z,7.30
2022-10-06T09:07:53.435Z,7.72
2022-10-06T09:08:51.628Z,7.28
2022-10-06T09:09:54.151Z,7.32
2022-10-06T09:10:45.282Z,6.60
2022-10-06T09:12:15.771Z,7.07
2022-10-06T09:13:05.166Z,7.47
2022-10-06T09:14:03.603Z,6.53
2022-10-06T09:14:57.327Z,6.78
2022-10-06T09:16:08.094Z,6.80
2022-10-06T09:17:54.455Z,7.72
2022-10-06T09:19:07.225Z,7.22
2022-10-06T09:20:04.417Z,6.87
2022-10-06T09:21:05.406Z,6.62
2022-10-06T09:21:53.820Z,6.57
2022-10-06T09:22:40.637Z,6.70
2022-10-06T09:23:51.779Z,6.90
2022-10-06T09:24:50.692Z,6.68
2022-10-06T09:25:39.725Z,7.10
2022-10-06T09:26:33.845Z,6.50
2022-10-06T09:27:34.388Z,7.12
2022-10-06T09:28:21.586Z,6.85
2022-10-06T09:29:09.565Z,7.05
2022-10-06T09:29:56.820Z,6.32
2022-10-06T09:30:43.856Z,6.82
2022-10-06T09:31:47.560Z,6.80
2022-10-06T09:32:34.990Z,7.15
2022-10-06T09:33:22.174Z,6.75
2022-10-06T09:34:45.857Z,6.43
2022-10-06T09:35:33.000Z,6.37
2022-10-06T09:36:20.023Z,6.95
2022-10-06T09:37:13.020Z,7.00
2022-10-06T09:38:08.714Z,7.50
2022-10-06T09:38:58.042Z,6.85
2022-10-06T09:39:50.526Z,6.70
2022-10-06T09:40:42.168Z,7.28
2022-10-06T09:41:34.283Z,7.47
2022-10-06T09:42:25.009Z,6.80
2022-10-06T09:43:28.607Z,6.90
2022-10-06T09:44:26.651Z,7.28
2022-10-06T09:45:18.005Z,6.85
2022-10-06T09:46:43.678Z,8.20
2022-10-06T09:47:33.336Z,7.35
2022-10-06T09:48:25.449Z,7.20
2022-10-06T09:49:17.945Z,7.55
2022-10-06T09:50:28.125Z,7.47
2022-10-06T09:51:18.701Z,7.85
2022-10-06T09:53:11.245Z,6.93
2022-10-06T09:54:24.689Z,6.93
2022-10-06T09:55:18.193Z,7.05
2022-10-06T09:56:13.579Z,6.50
2022-10-06T09:57:08.738Z,7.05
2022-10-06T09:57:56.566Z,7.37
2022-10-06T09:58:56.507Z,6.82
2022-10-06T09:59:46.531Z,6.70
2022-10-06T10:00:36.113Z,6.70
2022-10-06T10:01:27.646Z,7.20
2022-10-06T10:02:36.903Z,7.05
2022-10-06T10:03:26.495Z,6.57
2022-10-06T10:04:22.766Z,7.05
2022-10-06T10:05:30.534Z,6.45
2022-10-06T10:06:28.253Z,6.43
2022-10-06T10:07:20.920Z,6.53
2022-10-06T10:08:22.323Z,6.62
2022-10-06T10:09:22.585Z,6.05
2022-10-06T10:10:27.674Z,6.57
2022-10-06T10:11:41.243Z,6.72
2022-10-06T10:12:28.318Z,6.20
2022-10-06T10:13:19.431Z,6.75
2022-10-06T10:14:16.954Z,7.07
2022-10-06T10:15:25.046Z,7.53
2022-10-06T10:16:16.699Z,6.95
2022-10-06T10:17:29.588Z,6.40
2022-10-06T10:18:17.298Z,6.30
2022-10-06T10:19:05.856Z,7.07
2022-10-06T10:19:54.276Z,6.50
2022-10-06T10:20:56.476Z,6.68
2022-10-06T10:21:47.173Z,6.35
2022-10-06T10:22:41.886Z,7.37
2022-10-06T10:23:35.353Z,8.90
2022-10-06T10:24:53.549Z,11.00
2022-10-06T10:25:46.766Z,9.27
2022-10-06T10:26:50.811Z,7.18
2022-10-06T10:27:47.842Z,7.32
2022-10-06T10:29:11.545Z,6.87
2022-10-06T10:30:05.082Z,6.78
2022-10-06T10:31:06.874Z,7.15
2022-10-06T10:32:17.927Z,6.55
2022-10-06T10:33:19.111Z,6.85
2022-10-06T10:34:24.975Z,6.68
2022-10-06T10:35:22.010Z,7.05
2022-10-06T10:36:11.830Z,7.05
2022-10-06T10:37:04.401Z,6.95
2022-10-06T10:38:00.316Z,7.32
2022-10-06T10:38:48.519Z,7.50
2022-10-06T10:39:53.220Z,7.40
2022-10-06T10:40:51.678Z,7.00
2022-10-06T10:41:45.258Z,6.72
2022-10-06T10:43:04.735Z,6.75
2022-10-06T10:43:57.795Z,7.05
2022-10-06T10:44:56.610Z,7.72
2022-10-06T10:45:51.480Z,7.05
2022-10-06T10:46:41.735Z,7.10
2022-10-06T10:47:39.570Z,7.30
2022-10-06T10:48:34.210Z,6.93
2022-10-06T10:49:28.537Z,6.75
2022-10-06T10:50:28.750Z,7.15
2022-10-06T10:51:29.644Z,7.20
2022-10-06T10:52:23.412Z,7.55
2022-10-06T10:53:49.780Z,7.78
2022-10-06T10:54:39.916Z,7.57
2022-10-06T10:55:46.328Z,7.55
2022-10-06T10:56:33.887Z,8.02
2022-10-06T10:57:23.831Z,7.53
2022-10-06T10:58:48.340Z,9.15
2022-10-06T10:59:55.669Z,7.60
2022-10-06T11:00:46.142Z,7.80
2022-10-06T11:02:22.807Z,7.00
2022-10-06T11:03:10.074Z,6.87
2022-10-06T11:03:57.753Z,6.85
2022-10-06T11:04:47.374Z,6.65
2022-10-06T11:06:01.053Z,6.80
2022-10-06T11:07:11.262Z,7.32
2022-10-06T11:08:09.210Z,6.78
2022-10-06T11:09:05.789Z,6.50
2022-10-06T11:10:22.888Z,6.60
2022-10-06T11:11:36.926Z,6.65
2022-10-06T11:12:29.517Z,7.47
2022-10-06T11:13:37.680Z,6.75
2022-10-06T11:14:33.507Z,6.50
2022-10-06T11:15:31.614Z,6.70
2022-10-06T11:16:37.412Z,6.50
2022-10-06T11:17:47.288Z,6.90
2022-10-06T11:18:49.009Z,5.90
2022-10-06T11:20:21.507Z,6.62
2022-10-06T11:21:14.709Z,6.40
2022-10-06T11:22:07.071Z,6.60